createdAt,value
2018-05-07T00:01:22.291Z,62.68
2018-05-07T00:03:50.269Z,62.84
2018-05-07T00:06:18.301Z,62.87
2018-05-07T00:08:46.280Z,62.98
2018-05-07T00:11:14.247Z,62.62
2018-05-07T00:13:42.219Z,62.95
2018-05-07T00:16:10.188Z,63.20
2018-05-07T00:18:38.187Z,63.02
2018-05-07T00:21:06.170Z,63.21
2018-05-07T00:23:34.146Z,63.39
2018-05-07T00:26:02.128Z,62.82
2018-05-07T00:28:30.128Z,62.96
2018-05-07T00:30:58.099Z,63.18
2018-05-07T00:33:26.109Z,62.99
2018-05-07T00:35:54.076Z,63.73
2018-05-07T00:38:22.051Z,63.93
2018-05-07T00:40:50.034Z,64.02
2018-05-07T00:43:18.018Z,64.01
2018-05-07T00:45:45.999Z,63.62
2018-05-07T00:48:13.992Z,63.74
2018-05-07T00:50:41.961Z,63.95
2018-05-07T00:53:09.951Z,64.19
2018-05-07T00:55:37.943Z,64.70
2018-05-07T00:58:05.911Z,64.55
2018-05-07T01:00:33.880Z,64.68
2018-05-07T01:03:01.859Z,64.51
2018-05-07T01:05:29.826Z,64.80
2018-05-07T01:07:57.805Z,64.85
2018-05-07T01:10:25.766Z,64.87
2018-05-07T01:12:53.747Z,64.43
2018-05-07T01:15:21.739Z,64.79
2018-05-07T01:17:49.719Z,64.93
2018-05-07T01:20:17.684Z,65.15
2018-05-07T01:22:45.657Z,65.46
2018-05-07T01:25:13.643Z,65.82
2018-05-07T01:27:41.614Z,66.08
2018-05-07T01:30:09.624Z,66.08
2018-05-07T01:32:37.587Z,66.30
2018-05-07T01:35:05.567Z,66.36
2018-05-07T01:37:33.540Z,66.61
2018-05-07T01:40:01.516Z,66.52
2018-05-07T01:42:29.479Z,66.69
2018-05-07T01:44:57.455Z,66.78
2018-05-07T01:47:25.420Z,67.46
2018-05-07T01:49:53.388Z,67.65
2018-05-07T01:52:21.367Z,67.46
2018-05-07T01:54:49.327Z,67.39
2018-05-07T01:57:17.331Z,67.41
2018-05-07T01:59:45.299Z,66.91
2018-05-07T02:02:13.280Z,67.38
2018-05-07T02:04:41.247Z,67.62
2018-05-07T02:07:09.241Z,67.39
2018-05-07T02:09:37.245Z,67.59
2018-05-07T02:12:05.219Z,67.14
2018-05-07T02:14:33.187Z,67.13
2018-05-07T02:17:01.148Z,67.91
2018-05-07T02:19:29.136Z,68.11
2018-05-07T02:21:57.096Z,68.18
2018-05-07T02:24:25.097Z,69.29
2018-05-07T02:26:53.110Z,69.83
2018-05-07T02:29:21.091Z,70.47
2018-05-07T02:31:49.061Z,70.79
2018-05-07T02:34:17.032Z,71.26
2018-05-07T02:36:45.017Z,71.61
2018-05-07T02:39:12.996Z,72.06
2018-05-07T02:41:40.961Z,72.51
2018-05-07T02:44:08.955Z,72.60
2018-05-07T02:46:36.937Z,72.58
2018-05-07T02:49:04.928Z,72.76
2018-05-07T02:51:32.893Z,72.64
2018-05-07T02:54:00.896Z,72.12
2018-05-07T02:56:28.882Z,71.83
2018-05-07T02:58:56.845Z,71.42
2018-05-07T03:01:24.828Z,71.51
2018-05-07T03:03:52.799Z,71.75
2018-05-07T03:06:20.788Z,71.48
2018-05-07T03:08:48.758Z,72.00
2018-05-07T03:11:16.747Z,72.54
2018-05-07T03:13:44.760Z,72.28
2018-05-07T03:16:12.740Z,72.60
2018-05-07T03:18:40.737Z,72.53
2018-05-07T03:21:08.711Z,72.25
2018-05-07T03:23:36.784Z,72.00
2018-05-07T03:26:04.771Z,71.79
2018-05-07T03:28:32.755Z,71.22
2018-05-07T03:31:00.742Z,71.85
2018-05-07T03:33:28.653Z,71.92
2018-05-07T03:35:56.618Z,71.31
2018-05-07T03:38:24.510Z,71.42
2018-05-07T03:40:52.416Z,71.43
2018-05-07T03:43:20.348Z,71.73
2018-05-07T03:45:48.272Z,72.32
2018-05-07T03:48:16.189Z,72.14
2018-05-07T03:50:44.096Z,71.87
2018-05-07T03:53:12.032Z,72.13
2018-05-07T03:55:39.959Z,72.11
2018-05-07T03:58:07.876Z,72.24
2018-05-07T04:00:35.787Z,71.89
2018-05-07T04:03:03.715Z,71.93
2018-05-07T04:05:31.627Z,71.38
2018-05-07T04:07:59.607Z,71.58
2018-05-07T04:10:27.527Z,71.64
2018-05-07T04:12:55.518Z,71.44
2018-05-07T04:15:23.437Z,71.24
2018-05-07T04:18:03.008Z,71.22
2018-05-07T04:20:42.621Z,70.15
2018-05-07T04:26:05.866Z,71.03
2018-05-07T04:28:33.873Z,71.19
2018-05-07T04:31:01.774Z,71.55
2018-05-07T04:33:29.710Z,70.75
2018-05-07T04:35:57.699Z,70.67
2018-05-07T04:38:25.520Z,70.72
2018-05-07T04:40:53.476Z,70.62
2018-05-07T04:43:21.484Z,70.67
2018-05-07T04:45:49.420Z,70.12
2018-05-07T04:48:17.431Z,70.82
2018-05-07T04:50:45.351Z,70.52
2018-05-07T04:53:13.299Z,69.94
2018-05-07T04:55:41.217Z,69.81
2018-05-07T04:58:09.127Z,70.07
2018-05-07T05:00:37.057Z,70.21
2018-05-07T05:03:05.068Z,69.74
2018-05-07T05:05:33.039Z,69.43
2018-05-07T05:08:00.985Z,69.24
2018-05-07T05:10:28.891Z,69.36
2018-05-07T05:12:56.912Z,68.94
2018-05-07T05:15:24.759Z,68.81
2018-05-07T05:17:52.674Z,69.03
2018-05-07T05:20:20.589Z,68.21
2018-05-07T05:22:48.531Z,68.29
2018-05-07T05:25:16.467Z,68.19
2018-05-07T05:27:44.363Z,68.17
2018-05-07T05:30:12.255Z,68.09
2018-05-07T05:32:40.255Z,67.94
2018-05-07T05:35:08.175Z,68.07
2018-05-07T05:37:36.077Z,67.44
2018-05-07T05:40:04.066Z,66.93
2018-05-07T05:42:31.961Z,66.62
2018-05-07T05:44:59.869Z,66.45
2018-05-07T05:47:27.782Z,66.31
2018-05-07T05:49:55.793Z,66.18
2018-05-07T05:52:23.626Z,65.61
2018-05-07T05:54:51.549Z,65.82
2018-05-07T05:57:19.436Z,65.01
2018-05-07T05:59:47.356Z,64.88
2018-05-07T06:02:15.268Z,65.56
2018-05-07T06:04:43.163Z,65.87
2018-05-07T06:07:11.088Z,66.38
2018-05-07T06:09:39.003Z,66.61
2018-05-07T06:12:06.916Z,66.69
2018-05-07T06:14:34.897Z,66.53
2018-05-07T06:17:02.752Z,65.95
2018-05-07T06:19:30.645Z,66.09
2018-05-07T06:21:58.548Z,65.78
2018-05-07T06:24:26.479Z,64.58
2018-05-07T06:26:54.383Z,64.27
2018-05-07T06:29:22.419Z,63.84
2018-05-07T06:31:50.362Z,63.39
2018-05-07T06:34:18.329Z,62.70
2018-05-07T06:36:46.143Z,61.80
2018-05-07T06:39:14.070Z,60.54
2018-05-07T06:41:42.051Z,59.39
2018-05-07T06:44:10.033Z,57.90
2018-05-07T06:46:37.983Z,56.91
2018-05-07T06:49:05.883Z,55.88
2018-05-07T06:51:33.807Z,55.78
2018-05-07T06:54:01.722Z,56.00
2018-05-07T06:56:29.654Z,54.71
2018-05-07T06:58:57.584Z,54.00
2018-05-07T07:01:25.483Z,54.66
2018-05-07T07:03:53.456Z,53.77
2018-05-07T07:06:21.367Z,51.22
2018-05-07T07:08:49.496Z,50.72
2018-05-07T07:11:17.473Z,51.98
2018-05-07T07:13:45.367Z,50.38
2018-05-07T07:16:13.283Z,48.96
2018-05-07T07:18:41.204Z,48.05
2018-05-07T07:21:09.131Z,48.81
2018-05-07T07:23:37.054Z,48.21
2018-05-07T07:26:05.227Z,48.29
2018-05-07T07:28:33.178Z,48.44
2018-05-07T07:31:01.091Z,48.17
2018-05-07T07:33:29.014Z,46.98
2018-05-07T07:35:56.911Z,47.33
2018-05-07T07:38:24.833Z,45.67
2018-05-07T07:40:52.740Z,45.45
2018-05-07T07:43:20.660Z,45.42
2018-05-07T07:45:48.664Z,44.71
2018-05-07T07:48:16.602Z,44.22
2018-05-07T07:50:44.503Z,43.39
2018-05-07T07:53:12.432Z,43.57
2018-05-07T07:55:40.347Z,42.70
2018-05-07T07:58:08.239Z,41.86
2018-05-07T08:00:36.134Z,41.79
2018-05-07T08:03:04.086Z,41.07
2018-05-07T08:05:32.013Z,41.52
2018-05-07T08:07:59.918Z,40.71
2018-05-07T08:10:27.831Z,41.02
2018-05-07T08:12:55.723Z,42.13
2018-05-07T08:15:23.671Z,39.57
2018-05-07T08:17:51.564Z,39.52
2018-05-07T08:20:19.507Z,39.27
2018-05-07T08:22:47.403Z,39.05
2018-05-07T08:25:15.377Z,38.62
2018-05-07T08:27:43.265Z,38.30
2018-05-07T08:30:11.175Z,37.00
2018-05-07T08:32:39.639Z,37.56
2018-05-07T08:35:07.705Z,37.37
2018-05-07T08:37:35.599Z,37.23
2018-05-07T08:40:03.502Z,36.11
2018-05-07T08:42:31.467Z,35.91
2018-05-07T08:44:59.362Z,37.55
2018-05-07T08:47:27.326Z,37.51
2018-05-07T08:49:55.249Z,35.44
2018-05-07T08:52:23.150Z,34.56
2018-05-07T08:54:51.070Z,35.15
2018-05-07T08:57:18.980Z,33.58
2018-05-07T08:59:46.910Z,34.24
2018-05-07T09:02:15.042Z,33.83
2018-05-07T09:04:42.945Z,32.37
2018-05-07T09:07:10.878Z,31.71
2018-05-07T09:09:38.803Z,32.49
2018-05-07T09:12:06.715Z,32.05
2018-05-07T09:14:34.619Z,33.05
2018-05-07T09:17:02.591Z,33.07
2018-05-07T09:19:30.533Z,31.30
2018-05-07T09:21:58.464Z,30.22
2018-05-07T09:24:26.382Z,30.39
2018-05-07T09:26:54.348Z,30.63
2018-05-07T09:29:22.255Z,29.68
2018-05-07T09:31:50.185Z,29.63
2018-05-07T09:34:18.091Z,28.64
2018-05-07T09:36:45.995Z,28.92
2018-05-07T09:39:13.926Z,28.89
2018-05-07T09:41:41.855Z,29.26
2018-05-07T09:44:09.767Z,28.04
2018-05-07T09:46:37.674Z,28.26
2018-05-07T09:49:05.680Z,28.75
2018-05-07T09:51:33.635Z,29.26
2018-05-07T09:54:01.527Z,28.61
2018-05-07T09:56:29.444Z,28.04
2018-05-07T09:58:57.373Z,26.88
2018-05-07T10:01:25.376Z,28.16
2018-05-07T10:03:53.354Z,27.62
2018-05-07T10:06:21.526Z,26.84
2018-05-07T10:08:49.447Z,27.19
2018-05-07T10:11:17.339Z,25.88
2018-05-07T10:13:45.278Z,27.04
2018-05-07T10:16:13.162Z,25.18
2018-05-07T10:18:41.076Z,26.83
2018-05-07T10:21:08.991Z,25.88
2018-05-07T10:23:37.033Z,25.41
2018-05-07T10:26:04.866Z,25.54
2018-05-07T10:28:32.778Z,26.07
2018-05-07T10:31:00.687Z,27.44
2018-05-07T10:33:28.646Z,24.94
2018-05-07T10:35:56.562Z,25.22
2018-05-07T10:38:24.467Z,25.25
2018-05-07T10:40:52.407Z,26.71
2018-05-07T10:43:20.375Z,26.22
2018-05-07T10:45:48.430Z,25.67
2018-05-07T10:48:16.335Z,24.94
2018-05-07T10:50:44.264Z,25.15
2018-05-07T10:53:12.180Z,25.33
2018-05-07T10:55:40.151Z,25.48
2018-05-07T10:58:08.052Z,26.04
2018-05-07T11:00:35.973Z,26.94
2018-05-07T11:03:03.877Z,26.50
2018-05-07T11:05:31.824Z,26.65
2018-05-07T11:07:59.725Z,25.65
2018-05-07T11:10:27.649Z,25.02
2018-05-07T11:12:55.550Z,26.54
2018-05-07T11:15:23.468Z,27.85
2018-05-07T11:17:51.359Z,27.76
2018-05-07T11:20:19.335Z,27.26
2018-05-07T11:22:47.231Z,26.10
2018-05-07T11:25:15.295Z,25.49
2018-05-07T11:27:43.195Z,26.11
2018-05-07T11:30:11.103Z,25.65
2018-05-07T11:32:39.104Z,25.71
2018-05-07T11:35:07.023Z,25.63
2018-05-07T11:37:34.910Z,26.66
2018-05-07T11:40:02.880Z,26.88
2018-05-07T11:42:30.807Z,26.60
2018-05-07T11:44:58.688Z,27.61
2018-05-07T11:47:26.676Z,26.87
2018-05-07T11:49:54.539Z,27.10
2018-05-07T11:52:22.466Z,26.23
2018-05-07T11:54:50.361Z,27.91
2018-05-07T11:57:18.283Z,29.53
2018-05-07T11:59:46.195Z,29.61
2018-05-07T12:02:14.125Z,28.23
2018-05-07T12:04:42.020Z,28.64
2018-05-07T12:07:09.938Z,28.79
2018-05-07T12:09:37.843Z,29.90
2018-05-07T12:12:05.749Z,31.21
2018-05-07T12:14:33.662Z,31.80
2018-05-07T12:17:01.591Z,32.25
2018-05-07T12:19:29.482Z,32.93
2018-05-07T12:21:57.451Z,32.37
2018-05-07T12:24:25.395Z,33.63
2018-05-07T12:26:53.303Z,32.93
2018-05-07T12:29:21.255Z,32.84
2018-05-07T12:31:49.247Z,32.40
2018-05-07T12:34:17.091Z,31.93
2018-05-07T12:36:45.090Z,31.41
2018-05-07T12:39:12.967Z,31.19
2018-05-07T12:41:40.870Z,31.22
2018-05-07T12:44:08.819Z,32.05
2018-05-07T12:46:36.708Z,33.79
2018-05-07T12:49:04.606Z,33.36
2018-05-07T12:51:32.537Z,33.48
2018-05-07T12:54:00.444Z,33.54
2018-05-07T12:56:28.337Z,33.63
2018-05-07T12:58:56.284Z,32.98
2018-05-07T13:01:24.172Z,32.50
2018-05-07T13:03:52.072Z,32.28
2018-05-07T13:06:19.971Z,32.58
2018-05-07T13:08:47.901Z,32.99
2018-05-07T13:11:15.791Z,32.97
2018-05-07T13:13:43.716Z,33.71
2018-05-07T13:16:11.623Z,33.70
2018-05-07T13:18:39.565Z,34.47
2018-05-07T13:21:07.507Z,33.25
2018-05-07T13:23:35.455Z,32.88
2018-05-07T13:26:03.365Z,32.89
2018-05-07T13:28:31.295Z,32.50
2018-05-07T13:30:59.220Z,31.96
2018-05-07T13:33:27.126Z,32.00
2018-05-07T13:35:55.070Z,32.69
2018-05-07T13:38:22.983Z,32.03
2018-05-07T13:40:50.912Z,33.05
2018-05-07T13:43:18.893Z,32.57
2018-05-07T13:45:46.770Z,29.76
2018-05-07T13:48:14.676Z,29.37
2018-05-07T13:50:42.585Z,30.99
2018-05-07T13:53:10.499Z,30.22
2018-05-07T13:55:38.421Z,30.23
2018-05-07T13:58:06.341Z,29.12
2018-05-07T14:00:34.261Z,30.53
2018-05-07T14:03:02.156Z,29.80
2018-05-07T14:05:30.076Z,28.34
2018-05-07T14:07:57.979Z,30.00
2018-05-07T14:10:25.915Z,30.38
2018-05-07T14:12:53.812Z,30.67
2018-05-07T14:15:21.711Z,30.77
2018-05-07T14:17:49.606Z,31.20
2018-05-07T14:20:17.519Z,30.28
2018-05-07T14:22:45.424Z,31.03
2018-05-07T14:25:13.307Z,28.59
2018-05-07T14:27:41.224Z,30.46
2018-05-07T14:30:09.133Z,30.51
2018-05-07T14:32:37.052Z,30.87
2018-05-07T14:35:04.935Z,30.86
2018-05-07T14:37:32.851Z,32.17
2018-05-07T14:40:00.762Z,32.58
2018-05-07T14:42:28.679Z,33.04
2018-05-07T14:44:56.598Z,32.89
2018-05-07T14:47:24.504Z,33.36
2018-05-07T14:49:52.417Z,33.08
2018-05-07T14:52:20.336Z,32.33
2018-05-07T14:54:48.265Z,31.26
2018-05-07T14:57:16.218Z,31.54
2018-05-07T14:59:44.119Z,31.65
2018-05-07T15:02:12.053Z,32.37
2018-05-07T15:04:39.961Z,33.38
2018-05-07T15:07:07.854Z,33.03
2018-05-07T15:09:35.782Z,34.10
2018-05-07T15:12:03.715Z,34.55
2018-05-07T15:14:31.727Z,35.21
2018-05-07T15:16:59.845Z,36.49
2018-05-07T15:19:27.767Z,37.14
2018-05-07T15:21:55.751Z,37.31
2018-05-07T15:24:23.714Z,37.25
2018-05-07T15:26:52.161Z,37.56
2018-05-07T15:29:20.147Z,37.49
2018-05-07T15:31:47.978Z,37.83
2018-05-07T15:34:16.282Z,38.24
2018-05-07T15:36:44.228Z,37.74
2018-05-07T15:39:12.172Z,37.53
2018-05-07T15:41:40.091Z,37.56
2018-05-07T15:44:08.113Z,37.95
2018-05-07T15:46:36.005Z,38.71
2018-05-07T15:49:04.380Z,39.53
2018-05-07T15:51:32.284Z,39.74
2018-05-07T15:54:00.690Z,40.29
2018-05-07T15:56:28.593Z,40.73
2018-05-07T15:59:24.550Z,41.26
2018-05-07T16:01:52.470Z,41.26
2018-05-07T16:04:20.607Z,41.29
2018-05-07T16:06:48.513Z,41.36
2018-05-07T16:09:17.039Z,42.16
2018-05-07T16:11:44.951Z,42.75
2018-05-07T16:14:12.907Z,43.46
2018-05-07T16:16:41.238Z,43.61
2018-05-07T16:19:09.327Z,44.14
2018-05-07T16:21:37.275Z,43.49
2018-05-07T16:24:05.174Z,44.11
2018-05-07T16:26:33.107Z,44.68
2018-05-07T16:29:01.147Z,45.02
2018-05-07T16:31:29.148Z,44.75
2018-05-07T16:33:57.068Z,45.12
2018-05-07T16:36:25.033Z,44.61
2018-05-07T16:38:53.180Z,44.96
2018-05-07T16:41:20.945Z,44.79
2018-05-07T16:43:48.835Z,45.08
2018-05-07T16:46:17.799Z,45.74
2018-05-07T16:48:46.584Z,46.25
2018-05-07T16:51:15.461Z,46.55
2018-05-07T16:53:43.155Z,46.84
2018-05-07T16:56:11.139Z,46.90
2018-05-07T16:58:39.003Z,47.21
2018-05-07T17:01:06.928Z,47.38
2018-05-07T17:03:34.836Z,47.33
2018-05-07T17:06:02.761Z,47.38
2018-05-07T17:08:30.671Z,47.22
2018-05-07T17:10:58.602Z,47.68
2018-05-07T17:13:26.506Z,47.88
2018-05-07T17:15:54.424Z,48.08
2018-05-07T17:18:22.361Z,47.54
2018-05-07T17:20:50.291Z,47.34
2018-05-07T17:23:18.216Z,47.39
2018-05-07T17:25:46.148Z,47.31
2018-05-07T17:28:14.044Z,47.57
2018-05-07T17:30:41.966Z,46.87
2018-05-07T17:33:09.859Z,47.06
2018-05-07T17:35:37.809Z,47.27
2018-05-07T17:38:05.727Z,47.39
2018-05-07T17:40:33.712Z,47.19
2018-05-07T17:43:01.646Z,47.64
2018-05-07T17:45:41.548Z,48.05
2018-05-07T17:48:21.303Z,48.50
2018-05-07T17:50:49.291Z,49.01
2018-05-07T17:53:17.187Z,48.40
2018-05-07T17:55:45.271Z,48.44
2018-05-07T17:58:13.371Z,48.93
2018-05-07T18:00:41.298Z,49.03
2018-05-07T18:03:09.211Z,48.37
2018-05-07T18:05:37.313Z,48.99
2018-05-07T18:08:05.861Z,49.33
2018-05-07T18:10:33.822Z,49.37
2018-05-07T18:13:01.695Z,49.64
2018-05-07T18:15:29.681Z,49.64
2018-05-07T18:17:57.548Z,48.79
2018-05-07T18:20:25.495Z,48.44
2018-05-07T18:22:53.403Z,48.48
2018-05-07T18:25:21.541Z,48.43
2018-05-07T18:27:49.828Z,47.71
2018-05-07T18:30:17.895Z,47.37
2018-05-07T18:32:45.915Z,48.01
2018-05-07T18:35:14.100Z,47.82
2018-05-07T18:37:56.399Z,48.60
2018-05-07T18:40:24.291Z,47.86
2018-05-07T18:42:52.288Z,48.30
2018-05-07T18:45:20.664Z,48.78
2018-05-07T18:47:49.107Z,49.06
2018-05-07T18:50:17.062Z,48.92
2018-05-07T18:52:45.007Z,49.28
2018-05-07T18:55:13.033Z,49.28
2018-05-07T18:57:40.912Z,49.97
2018-05-07T19:00:08.931Z,50.30
2018-05-07T19:02:36.847Z,50.12
2018-05-07T19:05:04.862Z,49.97
2018-05-07T19:07:32.828Z,50.87
2018-05-07T19:10:00.869Z,51.04
2018-05-07T19:12:29.065Z,50.81
2018-05-07T19:14:57.292Z,50.82
2018-05-07T19:17:25.388Z,50.45
2018-05-07T19:19:53.332Z,51.41
2018-05-07T19:22:21.250Z,50.75
2018-05-07T19:24:49.283Z,50.63
2018-05-07T19:27:17.188Z,50.11
2018-05-07T19:29:45.119Z,50.34
2018-05-07T19:32:13.078Z,50.84
2018-05-07T19:34:41.009Z,50.84
2018-05-07T19:37:08.972Z,50.33
2018-05-07T19:39:36.886Z,51.20
2018-05-07T19:42:04.808Z,50.66
2018-05-07T19:44:32.789Z,50.30
2018-05-07T19:47:00.721Z,50.73
2018-05-07T19:49:28.715Z,50.35
2018-05-07T19:51:56.667Z,50.68
2018-05-07T19:54:24.958Z,51.25
2018-05-07T19:56:52.858Z,51.38
2018-05-07T19:59:20.773Z,50.98
2018-05-07T20:01:48.669Z,52.15
2018-05-07T20:04:16.697Z,52.27
2018-05-07T20:06:44.718Z,52.75
2018-05-07T20:09:12.754Z,53.78
2018-05-07T20:11:40.636Z,53.50
2018-05-07T20:14:08.535Z,53.81
2018-05-07T20:16:37.072Z,54.24
2018-05-07T20:19:04.984Z,54.64
2018-05-07T20:21:32.907Z,55.08
2018-05-07T20:24:00.809Z,55.10
2018-05-07T20:26:28.740Z,55.14
2018-05-07T20:28:56.716Z,55.13
2018-05-07T20:31:24.780Z,54.75
2018-05-07T20:33:52.747Z,54.70
2018-05-07T20:36:20.662Z,54.51
2018-05-07T20:38:48.629Z,54.59
2018-05-07T20:41:16.586Z,54.72
2018-05-07T20:43:44.494Z,54.91
2018-05-07T20:46:12.410Z,54.84
2018-05-07T20:48:40.356Z,54.84
2018-05-07T20:51:08.305Z,54.30
2018-05-07T20:53:36.213Z,54.80
2018-05-07T20:56:04.189Z,55.18
2018-05-07T20:58:32.179Z,55.44
2018-05-07T21:01:00.096Z,55.70
2018-05-07T21:03:28.250Z,55.49
2018-05-07T21:05:56.164Z,55.55
2018-05-07T21:08:24.117Z,56.21
2018-05-07T21:10:52.065Z,56.52
2018-05-07T21:13:20.229Z,56.58
2018-05-07T21:15:48.147Z,56.94
2018-05-07T21:18:16.084Z,56.93
2018-05-07T21:20:43.974Z,57.13
2018-05-07T21:23:11.943Z,56.98
2018-05-07T21:25:39.874Z,56.42
2018-05-07T21:28:07.785Z,56.71
2018-05-07T21:30:36.487Z,56.74
2018-05-07T21:33:04.408Z,56.24
2018-05-07T21:35:32.321Z,56.00
2018-05-07T21:38:00.228Z,56.43
2018-05-07T21:40:28.145Z,56.07
2018-05-07T21:42:56.080Z,56.10
2018-05-07T21:45:23.976Z,56.21
2018-05-07T21:47:51.916Z,56.70
2018-05-07T21:50:19.861Z,57.10
2018-05-07T21:52:47.777Z,57.08
2018-05-07T21:55:15.707Z,57.26
2018-05-07T21:57:43.678Z,57.42
2018-05-07T22:00:11.721Z,58.09
2018-05-07T22:02:40.024Z,58.11
2018-05-07T22:05:08.012Z,57.74
2018-05-07T22:07:36.737Z,57.93
2018-05-07T22:10:04.845Z,58.13
2018-05-07T22:12:33.420Z,58.27
2018-05-07T22:15:01.336Z,58.31
2018-05-07T22:17:30.004Z,58.06
2018-05-07T22:19:58.430Z,57.58
2018-05-07T22:22:26.458Z,57.39
2018-05-07T22:24:54.374Z,57.03
2018-05-07T22:27:22.349Z,57.78
2018-05-07T22:29:50.357Z,58.16
2018-05-07T22:32:18.314Z,58.45
2018-05-07T22:34:46.450Z,59.45
2018-05-07T22:37:14.433Z,59.19
2018-05-07T22:39:42.357Z,59.77
2018-05-07T22:42:10.264Z,59.86
2018-05-07T22:44:38.199Z,60.10
2018-05-07T22:47:06.131Z,60.81
2018-05-07T22:49:34.060Z,60.86
2018-05-07T22:52:02.032Z,60.97
2018-05-07T22:54:29.913Z,61.44
2018-05-07T22:56:57.875Z,61.29
2018-05-07T22:59:25.777Z,61.06
2018-05-07T23:01:53.689Z,61.70
2018-05-07T23:04:21.602Z,61.79
2018-05-07T23:06:49.569Z,61.93
2018-05-07T23:09:17.511Z,62.12
2018-05-07T23:11:45.448Z,62.96
2018-05-07T23:14:13.386Z,63.62
2018-05-07T23:16:41.365Z,63.99
2018-05-07T23:19:09.281Z,64.36
2018-05-07T23:21:37.215Z,64.70
2018-05-07T23:24:05.128Z,65.10
2018-05-07T23:26:33.056Z,65.13
2018-05-07T23:29:01.077Z,65.52
2018-05-07T23:31:29.168Z,66.23
2018-05-07T23:33:57.272Z,66.14
2018-05-07T23:36:25.183Z,65.99
2018-05-07T23:38:53.172Z,65.32
2018-05-07T23:41:21.125Z,65.34
2018-05-07T23:43:49.121Z,66.00
2018-05-07T23:46:16.997Z,66.25
2018-05-07T23:48:45.329Z,66.62
2018-05-07T23:51:13.275Z,66.69
2018-05-07T23:53:42.497Z,67.50
2018-05-07T23:56:10.447Z,66.94
2018-05-07T23:58:38.366Z,67.30
